createdAt,value
2018-06-27T00:01:05.561Z,24.03
2018-06-27T00:03:33.809Z,25.73
2018-06-27T00:06:02.097Z,23.53
2018-06-27T00:08:30.352Z,28.93
2018-06-27T00:10:58.601Z,28.77
2018-06-27T00:13:26.869Z,37.10
2018-06-27T00:15:55.137Z,29.77
2018-06-27T00:18:23.415Z,27.40
2018-06-27T00:20:51.752Z,25.83
2018-06-27T00:23:20.018Z,24.47
2018-06-27T00:25:48.273Z,30.63
2018-06-27T00:28:16.587Z,24.97
2018-06-27T00:30:44.857Z,30.33
2018-06-27T00:33:13.149Z,26.33
2018-06-27T00:35:41.494Z,35.50
2018-06-27T00:38:14.745Z,25.80
2018-06-27T00:40:43.207Z,31.60
2018-06-27T00:43:11.569Z,30.73
2018-06-27T00:45:39.863Z,31.70
2018-06-27T00:48:08.577Z,30.47
2018-06-27T00:50:37.033Z,27.00
2018-06-27T00:53:05.532Z,28.30
2018-06-27T00:55:33.785Z,33.20
2018-06-27T00:58:02.114Z,43.00
2018-06-27T01:00:30.464Z,29.47
2018-06-27T01:02:58.925Z,19.37
2018-06-27T01:05:27.429Z,26.63
2018-06-27T01:07:55.769Z,30.93
2018-06-27T01:10:24.070Z,27.43
2018-06-27T01:12:52.369Z,33.30
2018-06-27T01:15:20.637Z,30.03
2018-06-27T01:17:52.988Z,31.13
2018-06-27T01:20:21.265Z,24.60
2018-06-27T01:22:49.845Z,33.70
2018-06-27T01:25:18.354Z,25.37
2018-06-27T01:27:47.103Z,28.73
2018-06-27T01:30:15.411Z,31.00
2018-06-27T01:32:43.677Z,27.30
2018-06-27T01:35:12.161Z,29.80
2018-06-27T01:37:40.413Z,24.83
2018-06-27T01:40:08.689Z,32.07
2018-06-27T01:42:36.942Z,24.00
2018-06-27T01:45:05.265Z,26.30
2018-06-27T01:47:33.524Z,25.87
2018-06-27T01:50:02.181Z,25.53
2018-06-27T01:52:30.441Z,25.40
2018-06-27T01:54:58.699Z,30.80
2018-06-27T01:57:27.005Z,33.37
2018-06-27T01:59:55.260Z,26.73
2018-06-27T02:02:23.722Z,34.57
2018-06-27T02:04:51.962Z,27.20
2018-06-27T02:07:20.227Z,20.10
2018-06-27T02:09:48.465Z,33.53
2018-06-27T02:12:16.741Z,40.63
2018-06-27T02:14:44.986Z,27.20
2018-06-27T02:17:13.269Z,35.27
2018-06-27T02:19:41.541Z,28.20
2018-06-27T02:22:09.895Z,26.27
2018-06-27T02:24:38.148Z,30.90
2018-06-27T02:27:06.478Z,28.70
2018-06-27T02:29:34.736Z,29.90
2018-06-27T02:32:03.081Z,27.37
2018-06-27T02:34:31.350Z,26.40
2018-06-27T02:36:59.745Z,33.90
2018-06-27T02:39:28.009Z,32.00
2018-06-27T02:41:56.308Z,31.57
2018-06-27T02:44:24.569Z,29.93
2018-06-27T02:46:52.941Z,29.90
2018-06-27T02:49:21.229Z,29.50
2018-06-27T02:51:49.590Z,28.37
2018-06-27T02:54:17.995Z,32.60
2018-06-27T02:56:46.271Z,27.83
2018-06-27T02:59:14.585Z,30.83
2018-06-27T03:01:42.906Z,35.73
2018-06-27T03:04:11.246Z,31.33
2018-06-27T03:06:39.518Z,34.67
2018-06-27T03:09:09.526Z,23.17
2018-06-27T03:11:38.017Z,26.20
2018-06-27T03:14:06.473Z,34.03
2018-06-27T03:16:34.777Z,27.90
2018-06-27T03:19:03.089Z,29.33
2018-06-27T03:21:31.358Z,28.90
2018-06-27T03:23:59.745Z,28.53
2018-06-27T03:26:28.003Z,28.90
2018-06-27T03:28:56.284Z,23.10
2018-06-27T03:31:24.562Z,25.17
2018-06-27T03:33:52.857Z,21.47
2018-06-27T03:36:21.121Z,24.97
2018-06-27T03:38:49.373Z,23.53
2018-06-27T03:41:17.701Z,19.90
2018-06-27T03:43:45.965Z,28.33
2018-06-27T03:46:14.271Z,29.40
2018-06-27T03:48:42.537Z,28.90
2018-06-27T03:51:10.820Z,30.80
2018-06-27T03:53:40.309Z,26.97
2018-06-27T03:56:09.807Z,36.87
2018-06-27T03:58:38.920Z,40.50
2018-06-27T04:01:09.149Z,30.87
2018-06-27T04:03:37.914Z,26.70
2018-06-27T04:06:07.002Z,39.07
2018-06-27T04:08:35.296Z,29.63
2018-06-27T04:11:03.669Z,31.23
2018-06-27T04:13:32.075Z,34.10
2018-06-27T04:16:00.961Z,25.70
2018-06-27T04:18:29.261Z,27.73
2018-06-27T04:20:57.957Z,28.63
2018-06-27T04:23:26.241Z,29.57
2018-06-27T04:25:54.553Z,33.70
2018-06-27T04:28:22.828Z,29.10
2018-06-27T04:30:51.136Z,30.10
2018-06-27T04:33:19.593Z,25.80
2018-06-27T04:35:47.928Z,32.20
2018-06-27T04:38:16.873Z,25.17
2018-06-27T04:40:45.199Z,26.80
2018-06-27T04:43:13.557Z,23.93
2018-06-27T04:45:41.832Z,27.13
2018-06-27T04:48:10.497Z,30.93
2018-06-27T04:50:45.520Z,28.10
2018-06-27T04:53:14.895Z,32.80
2018-06-27T04:55:43.164Z,27.17
2018-06-27T04:58:11.469Z,33.97
2018-06-27T05:00:39.768Z,23.53
2018-06-27T05:03:08.077Z,29.23
2018-06-27T05:05:36.341Z,24.43
2018-06-27T05:08:04.645Z,25.20
2018-06-27T05:10:32.998Z,33.30
2018-06-27T05:13:01.537Z,19.37
2018-06-27T05:15:29.816Z,28.20
2018-06-27T05:17:58.274Z,26.40
2018-06-27T05:20:26.614Z,21.57
2018-06-27T05:22:54.936Z,26.57
2018-06-27T05:25:23.207Z,24.53
2018-06-27T05:27:51.521Z,25.17
2018-06-27T05:30:19.777Z,22.53
2018-06-27T05:32:48.101Z,20.70
2018-06-27T05:35:16.597Z,30.93
2018-06-27T05:37:44.875Z,26.03
2018-06-27T05:40:13.185Z,22.17
2018-06-27T05:42:41.454Z,18.53
2018-06-27T05:45:09.917Z,24.40
2018-06-27T05:47:38.229Z,24.97
2018-06-27T05:50:06.565Z,24.33
2018-06-27T05:52:34.862Z,30.27
2018-06-27T05:55:10.124Z,26.10
2018-06-27T05:57:40.218Z,25.47
2018-06-27T06:00:09.560Z,26.30
2018-06-27T06:02:37.990Z,27.30
2018-06-27T06:05:06.318Z,17.30
2018-06-27T06:07:34.657Z,20.63
2018-06-27T06:10:03.579Z,23.40
2018-06-27T06:12:31.880Z,15.40
2018-06-27T06:15:00.196Z,25.33
2018-06-27T06:17:28.501Z,35.43
2018-06-27T06:19:56.801Z,20.70
2018-06-27T06:22:25.092Z,21.70
2018-06-27T06:24:53.397Z,24.20
2018-06-27T06:27:21.697Z,19.77
2018-06-27T06:29:49.969Z,26.13
2018-06-27T06:32:18.383Z,31.10
2018-06-27T06:34:46.578Z,19.47
2018-06-27T06:37:14.870Z,22.73
2018-06-27T06:39:43.256Z,21.10
2018-06-27T06:42:11.674Z,20.63
2018-06-27T06:44:39.937Z,31.70
2018-06-27T06:47:08.294Z,15.70
2018-06-27T06:49:36.569Z,21.80
2018-06-27T06:52:05.228Z,23.33
2018-06-27T06:54:34.145Z,25.57
2018-06-27T06:57:02.429Z,18.33
2018-06-27T06:59:30.760Z,27.97
2018-06-27T07:01:59.078Z,23.57
2018-06-27T07:04:27.361Z,20.17
2018-06-27T07:06:55.726Z,24.93
2018-06-27T07:09:23.980Z,24.47
2018-06-27T07:11:52.293Z,19.37
2018-06-27T07:14:20.555Z,20.30
2018-06-27T07:16:49.008Z,19.97
2018-06-27T07:19:17.269Z,17.37
2018-06-27T07:21:45.636Z,18.67
2018-06-27T07:24:13.941Z,21.83
2018-06-27T07:26:42.319Z,22.43
2018-06-27T07:29:10.597Z,13.33
2018-06-27T07:31:38.954Z,15.90
2018-06-27T07:34:07.243Z,25.97
2018-06-27T07:36:35.638Z,22.83
2018-06-27T07:39:06.590Z,21.00
2018-06-27T07:41:34.847Z,13.60
2018-06-27T07:44:03.146Z,13.53
2018-06-27T07:46:31.421Z,18.27
2018-06-27T07:48:59.745Z,25.80
2018-06-27T07:51:28.014Z,17.07
2018-06-27T07:53:56.333Z,25.70
2018-06-27T07:56:24.638Z,17.80
2018-06-27T07:58:52.998Z,19.60
2018-06-27T08:01:21.277Z,20.57
2018-06-27T08:03:49.641Z,22.20
2018-06-27T08:06:17.898Z,20.23
2018-06-27T08:08:46.189Z,26.70
2018-06-27T08:11:14.585Z,21.33
2018-06-27T08:13:42.958Z,15.60
2018-06-27T08:16:11.250Z,15.33
2018-06-27T08:18:41.803Z,19.13
2018-06-27T08:21:10.389Z,17.03
2018-06-27T08:23:38.719Z,16.00
2018-06-27T08:26:07.230Z,20.07
2018-06-27T08:28:35.550Z,19.40
2018-06-27T08:31:03.853Z,15.90
2018-06-27T08:33:32.365Z,24.87
2018-06-27T08:36:00.666Z,20.53
2018-06-27T08:38:28.921Z,22.07
2018-06-27T08:40:57.270Z,22.27
2018-06-27T08:43:25.862Z,22.93
2018-06-27T08:45:54.137Z,15.97
2018-06-27T08:48:22.389Z,22.73
2018-06-27T08:50:50.661Z,15.97
2018-06-27T08:53:18.949Z,21.00
2018-06-27T08:55:47.258Z,14.83
2018-06-27T08:58:15.574Z,23.90
2018-06-27T09:00:43.862Z,20.47
2018-06-27T09:03:12.133Z,21.90
2018-06-27T09:05:40.415Z,12.63
2018-06-27T09:08:08.726Z,21.57
2018-06-27T09:10:36.989Z,15.10
2018-06-27T09:13:05.398Z,10.90
2018-06-27T09:15:33.673Z,14.33
2018-06-27T09:18:01.984Z,18.53
2018-06-27T09:20:30.286Z,13.10
2018-06-27T09:22:58.570Z,16.27
2018-06-27T09:25:26.846Z,18.73
2018-06-27T09:27:55.165Z,17.60
2018-06-27T09:30:23.427Z,12.83
2018-06-27T09:32:51.774Z,24.07
2018-06-27T09:35:20.055Z,22.90
2018-06-27T09:37:48.469Z,24.40
2018-06-27T09:40:16.746Z,20.20
2018-06-27T09:42:45.102Z,18.67
2018-06-27T09:45:13.416Z,18.83
2018-06-27T09:47:41.707Z,17.53
2018-06-27T09:50:09.977Z,17.07
2018-06-27T09:52:38.272Z,24.93
2018-06-27T09:55:06.581Z,28.93
2018-06-27T09:57:34.947Z,22.10
2018-06-27T10:00:03.286Z,18.90
2018-06-27T10:02:31.997Z,24.27
2018-06-27T10:05:00.362Z,22.13
2018-06-27T10:07:28.683Z,16.67
2018-06-27T10:09:56.937Z,17.97
2018-06-27T10:12:25.214Z,14.17
2018-06-27T10:14:53.514Z,14.43
2018-06-27T10:17:21.847Z,16.17
2018-06-27T10:19:50.141Z,11.20
2018-06-27T10:22:18.459Z,12.30
2018-06-27T10:24:46.733Z,14.30
2018-06-27T10:27:14.988Z,9.67
2018-06-27T10:29:43.305Z,9.47
2018-06-27T10:32:11.574Z,10.47
2018-06-27T10:34:39.854Z,12.53
2018-06-27T10:37:08.122Z,12.20
2018-06-27T10:39:36.473Z,9.63
2018-06-27T10:42:04.801Z,5.13
2018-06-27T10:44:33.259Z,9.30
2018-06-27T10:47:01.462Z,8.53
2018-06-27T10:49:29.752Z,13.60
2018-06-27T10:51:58.034Z,14.17
2018-06-27T10:54:26.356Z,17.93
2018-06-27T10:56:54.635Z,9.27
2018-06-27T10:59:22.951Z,9.80
2018-06-27T11:01:51.210Z,5.40
2018-06-27T11:04:19.485Z,6.03
2018-06-27T11:06:47.789Z,3.00
2018-06-27T11:09:16.069Z,3.00
2018-06-27T11:11:44.357Z,2.43
2018-06-27T11:14:12.878Z,4.33
2018-06-27T11:16:41.114Z,6.00
2018-06-27T11:19:09.374Z,1.70
2018-06-27T11:21:37.688Z,1.70
2018-06-27T11:24:06.329Z,2.27
2018-06-27T11:26:34.646Z,2.83
2018-06-27T11:29:02.917Z,3.40
2018-06-27T11:31:31.230Z,1.67
2018-06-27T11:33:59.527Z,5.30
2018-06-27T11:36:28.077Z,3.17
2018-06-27T11:38:56.352Z,7.50
2018-06-27T11:41:24.689Z,1.40
2018-06-27T11:43:52.954Z,1.27
2018-06-27T11:46:21.253Z,2.93
2018-06-27T11:48:49.514Z,1.33
2018-06-27T11:51:17.805Z,2.00
2018-06-27T11:53:46.118Z,1.60
2018-06-27T11:56:14.450Z,3.07
2018-06-27T11:58:42.748Z,4.07
2018-06-27T12:01:11.061Z,1.73
2018-06-27T12:03:39.357Z,3.90
2018-06-27T12:06:07.661Z,1.40
2018-06-27T12:08:35.974Z,4.50
2018-06-27T12:11:04.213Z,1.70
2018-06-27T12:13:32.517Z,1.13
2018-06-27T12:16:00.781Z,1.53
2018-06-27T12:18:29.054Z,1.90
2018-06-27T12:20:57.305Z,0.90
2018-06-27T12:23:25.581Z,2.60
2018-06-27T12:25:53.929Z,0.93
2018-06-27T12:28:22.219Z,1.60
2018-06-27T12:30:50.475Z,2.00
2018-06-27T12:33:18.749Z,5.27
2018-06-27T12:35:47.029Z,2.30
2018-06-27T12:38:15.349Z,1.63
2018-06-27T12:40:43.685Z,1.10
2018-06-27T12:43:12.072Z,4.93
2018-06-27T12:45:40.354Z,1.77
2018-06-27T12:48:08.607Z,1.80
2018-06-27T12:50:36.896Z,1.23
2018-06-27T12:53:05.484Z,0.93
2018-06-27T12:55:33.769Z,1.27
2018-06-27T12:58:02.159Z,1.70
2018-06-27T13:00:30.491Z,4.13
2018-06-27T13:02:58.741Z,2.03
2018-06-27T13:05:27.090Z,0.80
2018-06-27T13:07:55.365Z,2.00
2018-06-27T13:10:23.825Z,1.43
2018-06-27T13:12:52.077Z,1.70
2018-06-27T13:15:20.374Z,1.20
2018-06-27T13:17:48.637Z,4.00
2018-06-27T13:20:16.953Z,1.87
2018-06-27T13:22:45.210Z,2.20
2018-06-27T13:25:13.533Z,3.27
2018-06-27T13:27:41.854Z,0.80
2018-06-27T13:30:10.146Z,0.90
2018-06-27T13:32:38.422Z,3.03
2018-06-27T13:35:07.073Z,1.53
2018-06-27T13:37:35.373Z,1.70
2018-06-27T13:40:03.802Z,2.93
2018-06-27T13:42:32.081Z,3.47
2018-06-27T13:45:00.402Z,1.77
2018-06-27T13:47:28.705Z,2.90
2018-06-27T13:49:57.015Z,5.07
2018-06-27T13:52:25.421Z,2.80
2018-06-27T13:54:56.719Z,3.47
2018-06-27T13:57:26.145Z,3.60
2018-06-27T13:59:54.477Z,5.03
2018-06-27T14:02:22.797Z,3.57
2018-06-27T14:04:51.358Z,4.30
2018-06-27T14:07:19.786Z,4.47
2018-06-27T14:09:48.075Z,4.27
2018-06-27T14:12:16.393Z,3.43
2018-06-27T14:14:44.691Z,5.17
2018-06-27T14:17:13.006Z,3.33
2018-06-27T14:19:41.382Z,3.90
2018-06-27T14:22:10.047Z,5.60
2018-06-27T14:24:39.107Z,5.83
2018-06-27T14:27:07.429Z,5.10
2018-06-27T14:29:35.727Z,5.10
2018-06-27T14:32:04.014Z,4.90
2018-06-27T14:34:32.332Z,5.27
2018-06-27T14:37:00.618Z,4.80
2018-06-27T14:39:28.913Z,5.27
2018-06-27T14:41:57.170Z,5.57
2018-06-27T14:44:25.484Z,4.67
2018-06-27T14:46:53.787Z,3.23
2018-06-27T14:49:22.135Z,5.27
2018-06-27T14:51:50.449Z,7.30
2018-06-27T14:54:18.781Z,3.97
2018-06-27T14:56:49.805Z,5.07
2018-06-27T14:59:18.126Z,3.13
2018-06-27T15:01:46.450Z,4.57
2018-06-27T15:04:14.769Z,2.50
2018-06-27T15:06:43.069Z,3.00
2018-06-27T15:09:11.588Z,2.57
2018-06-27T15:11:39.869Z,2.40
2018-06-27T15:14:08.196Z,2.00
2018-06-27T15:16:36.494Z,1.87
2018-06-27T15:19:04.810Z,2.30
2018-06-27T15:21:33.108Z,1.93
2018-06-27T15:24:01.398Z,1.73
2018-06-27T15:26:29.686Z,4.03
2018-06-27T15:28:57.965Z,1.90
2018-06-27T15:31:26.307Z,1.13
2018-06-27T15:33:54.613Z,1.70
2018-06-27T15:36:22.926Z,1.80
2018-06-27T15:38:51.225Z,1.37
2018-06-27T15:41:19.562Z,1.27
2018-06-27T15:43:47.984Z,5.63
2018-06-27T15:46:16.375Z,2.03
2018-06-27T15:48:44.658Z,1.20
2018-06-27T15:51:12.985Z,1.47
2018-06-27T15:53:41.285Z,1.50
2018-06-27T15:56:09.615Z,1.47
2018-06-27T15:58:37.941Z,1.00
2018-06-27T16:01:06.469Z,1.50
2018-06-27T16:03:34.761Z,2.07
2018-06-27T16:06:04.109Z,1.50
2018-06-27T16:08:32.430Z,1.10
2018-06-27T16:11:00.765Z,5.50
2018-06-27T16:13:29.163Z,2.50
2018-06-27T16:15:57.457Z,1.50
2018-06-27T16:18:25.854Z,1.10
2018-06-27T16:20:54.122Z,2.50
2018-06-27T16:23:22.409Z,2.00
2018-06-27T16:25:50.729Z,2.27
2018-06-27T16:28:19.049Z,1.33
2018-06-27T16:30:47.318Z,2.53
2018-06-27T16:33:15.654Z,4.03
2018-06-27T16:35:43.944Z,2.50
2018-06-27T16:38:12.376Z,3.90
2018-06-27T16:40:40.933Z,1.10
2018-06-27T16:43:09.291Z,3.27
2018-06-27T16:45:37.550Z,1.60
2018-06-27T16:48:06.452Z,1.77
2018-06-27T16:50:34.979Z,2.57
2018-06-27T16:53:03.669Z,4.40
2018-06-27T16:55:32.023Z,1.70
2018-06-27T16:58:00.313Z,10.60
2018-06-27T17:00:28.973Z,4.90
2018-06-27T17:02:57.710Z,1.67
2018-06-27T17:05:26.666Z,1.13
2018-06-27T17:07:55.379Z,2.00
2018-06-27T17:10:23.661Z,1.70
2018-06-27T17:12:52.120Z,5.50
2018-06-27T17:15:20.393Z,2.97
2018-06-27T17:17:48.962Z,3.33
2018-06-27T17:20:17.606Z,2.63
2018-06-27T17:22:46.267Z,4.30
2018-06-27T17:25:14.658Z,2.70
2018-06-27T17:27:42.949Z,2.27
2018-06-27T17:30:11.399Z,1.37
2018-06-27T17:32:39.715Z,1.17
2018-06-27T17:35:09.060Z,0.83
2018-06-27T17:37:37.370Z,2.57
2018-06-27T17:40:06.187Z,2.77
2018-06-27T17:42:34.500Z,2.37
2018-06-27T17:45:02.815Z,1.70
2018-06-27T17:47:31.085Z,4.43
2018-06-27T17:49:59.430Z,4.10
2018-06-27T17:52:28.020Z,2.60
2018-06-27T17:54:56.645Z,1.47
2018-06-27T17:57:24.898Z,1.50
2018-06-27T17:59:53.469Z,4.40
2018-06-27T18:02:21.802Z,1.03
2018-06-27T18:04:50.261Z,1.67
2018-06-27T18:07:22.280Z,5.47
2018-06-27T18:09:50.752Z,2.93
2018-06-27T18:12:19.073Z,2.47
2018-06-27T18:14:47.349Z,1.77
2018-06-27T18:17:15.657Z,4.10
2018-06-27T18:19:43.972Z,2.20
2018-06-27T18:22:12.282Z,2.87
2018-06-27T18:24:40.541Z,3.37
2018-06-27T18:27:08.862Z,1.50
2018-06-27T18:29:37.119Z,1.80
2018-06-27T18:32:05.511Z,1.90
2018-06-27T18:34:33.753Z,1.80
2018-06-27T18:37:02.061Z,2.63
2018-06-27T18:39:30.310Z,1.67
2018-06-27T18:41:58.614Z,1.67
2018-06-27T18:44:26.874Z,2.30
2018-06-27T18:46:55.228Z,1.63
2018-06-27T18:49:23.504Z,1.57
2018-06-27T18:51:51.834Z,1.80
2018-06-27T18:54:20.139Z,2.20
2018-06-27T18:56:48.492Z,1.80
2018-06-27T18:59:16.902Z,1.70
2018-06-27T19:01:45.202Z,1.67
2018-06-27T19:04:13.516Z,2.53
2018-06-27T19:06:41.789Z,3.70
2018-06-27T19:09:11.866Z,1.80
2018-06-27T19:11:41.858Z,2.03
2018-06-27T19:14:10.161Z,3.30
2018-06-27T19:16:38.441Z,1.60
2018-06-27T19:19:06.908Z,11.27
2018-06-27T19:21:35.086Z,6.57
2018-06-27T19:24:03.442Z,1.23
2018-06-27T19:26:31.718Z,1.60
2018-06-27T19:29:00.056Z,2.37
2018-06-27T19:31:28.309Z,4.57
2018-06-27T19:33:56.649Z,3.07
2018-06-27T19:36:24.918Z,3.40
2018-06-27T19:38:53.285Z,4.27
2018-06-27T19:41:21.700Z,2.37
2018-06-27T19:43:49.902Z,1.63
2018-06-27T19:46:18.169Z,1.70
2018-06-27T19:48:46.429Z,1.80
2018-06-27T19:51:14.707Z,4.63
2018-06-27T19:53:43.009Z,2.03
2018-06-27T19:56:11.306Z,5.60
2018-06-27T19:58:39.581Z,4.40
2018-06-27T20:01:07.986Z,2.03
2018-06-27T20:03:36.277Z,3.43
2018-06-27T20:06:04.565Z,4.40
2018-06-27T20:08:32.861Z,2.50
2018-06-27T20:11:01.185Z,6.20
2018-06-27T20:13:29.442Z,1.67
2018-06-27T20:15:57.751Z,1.80
2018-06-27T20:18:26.015Z,2.50
2018-06-27T20:20:54.322Z,3.27
2018-06-27T20:23:22.866Z,2.53
2018-06-27T20:25:51.159Z,3.60
2018-06-27T20:28:19.406Z,2.80
2018-06-27T20:30:47.693Z,3.10
2018-06-27T20:33:16.031Z,2.90
2018-06-27T20:35:44.359Z,1.83
2018-06-27T20:38:12.673Z,3.17
2018-06-27T20:40:40.956Z,2.70
2018-06-27T20:43:09.374Z,2.30
2018-06-27T20:45:37.661Z,2.83
2018-06-27T20:48:05.999Z,2.20
2018-06-27T20:50:34.293Z,1.80
2018-06-27T20:53:03.065Z,2.30
2018-06-27T20:55:31.514Z,2.47
2018-06-27T20:58:00.013Z,1.73
2018-06-27T21:00:28.438Z,2.50
2018-06-27T21:02:56.758Z,3.90
2018-06-27T21:05:25.077Z,2.53
2018-06-27T21:07:53.413Z,1.90
2018-06-27T21:10:21.658Z,1.80
2018-06-27T21:12:50.007Z,3.40
2018-06-27T21:15:18.285Z,3.40
2018-06-27T21:17:46.590Z,3.17
2018-06-27T21:20:14.845Z,7.00
2018-06-27T21:22:43.253Z,3.90
2018-06-27T21:25:11.513Z,4.87
2018-06-27T21:27:39.974Z,2.90
2018-06-27T21:30:09.072Z,3.97
2018-06-27T21:32:37.539Z,3.53
2018-06-27T21:35:06.244Z,8.30
2018-06-27T21:37:34.502Z,4.17
2018-06-27T21:40:03.031Z,2.73
2018-06-27T21:42:31.309Z,4.30
2018-06-27T21:44:59.662Z,5.40
2018-06-27T21:47:27.945Z,2.53
2018-06-27T21:49:56.242Z,2.83
2018-06-27T21:52:24.560Z,6.00
2018-06-27T21:54:52.885Z,5.00
2018-06-27T21:57:21.173Z,2.87
2018-06-27T21:59:49.520Z,4.93
2018-06-27T22:02:17.869Z,3.83
2018-06-27T22:04:46.282Z,3.03
2018-06-27T22:07:14.577Z,5.40
2018-06-27T22:09:42.842Z,3.33
2018-06-27T22:12:11.417Z,3.70
2018-06-27T22:14:39.722Z,5.27
2018-06-27T22:17:08.019Z,3.23
2018-06-27T22:19:36.286Z,7.03
2018-06-27T22:22:04.597Z,2.90
2018-06-27T22:24:33.278Z,2.57
2018-06-27T22:27:01.654Z,3.90
2018-06-27T22:29:29.929Z,3.23
2018-06-27T22:32:01.401Z,3.00
2018-06-27T22:34:29.678Z,5.57
2018-06-27T22:37:04.521Z,4.50
2018-06-27T22:39:32.807Z,3.10
2018-06-27T22:42:01.306Z,2.63
2018-06-27T22:44:29.914Z,4.20
2018-06-27T22:46:58.377Z,3.70
2018-06-27T22:49:26.783Z,3.53
2018-06-27T22:51:55.110Z,4.90
2018-06-27T22:54:23.381Z,4.90
2018-06-27T22:56:51.706Z,4.37
2018-06-27T22:59:19.977Z,4.57
2018-06-27T23:01:48.335Z,8.20
2018-06-27T23:04:16.866Z,4.70
2018-06-27T23:06:45.209Z,6.53
2018-06-27T23:09:13.484Z,5.80
2018-06-27T23:11:41.766Z,5.77
2018-06-27T23:14:10.041Z,5.63
2018-06-27T23:16:38.385Z,5.63
2018-06-27T23:19:06.670Z,6.93
2018-06-27T23:21:34.986Z,5.67
2018-06-27T23:24:03.296Z,6.73
2018-06-27T23:26:31.615Z,6.87
2018-06-27T23:28:59.897Z,8.50
2018-06-27T23:31:28.183Z,8.63
2018-06-27T23:33:57.393Z,5.63
2018-06-27T23:36:26.906Z,5.20
2018-06-27T23:38:55.199Z,6.97
2018-06-27T23:41:24.029Z,6.20
2018-06-27T23:43:52.314Z,6.13
2018-06-27T23:46:20.613Z,7.47
2018-06-27T23:48:48.949Z,5.67
2018-06-27T23:51:17.221Z,5.93
2018-06-27T23:53:45.537Z,11.30
2018-06-27T23:56:13.813Z,4.77
2018-06-27T23:58:42.109Z,5.83
